Time;durP1;ratioP1;P1;durP2;ratioP2;P2;SDS_P1;SDS_P2;PMS_P1;PMS_P2;Temp;Humidity;BMP_temperature;BMP_pressure;BME280_temperature;BME280_humidity;BME280_pressure;Samples;Min_cycle;Max_cycle;Signal;HPM_P1;HPM_P2
2021/01/16 00:00:27;;;;;;;39.67;21.55;;;;;;;;;;4974776;28;20037;-82
2021/01/16 00:02:53;;;;;;;34.42;17.90;;;;;;;;;;4982031;28;20027;-82
2021/01/16 00:05:20;;;;;;;38.53;20.58;;;;;;;;;;4972408;28;20519;-84
2021/01/16 00:07:48;;;;;;;36.63;20.60;;;;;;;;;;4988184;28;20055;-82
2021/01/16 00:10:17;;;;;;;33.88;19.05;;;;;;;;;;4988592;28;20030;-82
2021/01/16 00:12:52;;;;;;;32.85;18.27;;;;;;;;;;4987999;28;20049;-83
2021/01/16 00:15:18;;;;;;;37.47;19.77;;;;;;;;;;4991672;28;20027;-82
2021/01/16 00:17:56;;;;;;;33.45;19.23;;;;;;;;;;4990803;28;20030;-82
2021/01/16 00:20:23;;;;;;;33.80;18.20;;;;;;;;;;4991178;28;20042;-81
2021/01/16 00:22:49;;;;;;;30.80;17.75;;;;;;;;;;4982093;28;20061;-82
2021/01/16 00:25:24;;;;;;;33.95;17.98;;;;;;;;;;4990358;28;20038;-82
2021/01/16 00:27:51;;;;;;;33.80;19.02;;;;;;;;;;4990431;28;20121;-82
2021/01/16 00:30:18;;;;;;;35.22;18.42;;;;;;;;;;4974865;28;20057;-81
2021/01/16 00:32:45;;;;;;;35.28;18.02;;;;;;;;;;4991049;28;20494;-82
2021/01/16 00:35:15;;;;;;;35.97;18.85;;;;;;;;;;4975675;28;20038;-82
2021/01/16 00:37:45;;;;;;;32.08;17.75;;;;;;;;;;4971216;28;20030;-83
2021/01/16 00:40:13;;;;;;;29.45;17.67;;;;;;;;;;4973685;28;20049;-82
2021/01/16 00:42:40;;;;;;;34.75;17.40;;;;;;;;;;4988794;28;20035;-82
2021/01/16 00:45:11;;;;;;;31.75;17.77;;;;;;;;;;4991829;28;20041;-82
2021/01/16 00:47:38;;;;;;;34.15;18.42;;;;;;;;;;4972006;28;20038;-82
2021/01/16 00:50:09;;;;;;;36.63;17.50;;;;;;;;;;4990766;28;20042;-82
2021/01/16 00:52:45;;;;;;;34.97;18.63;;;;;;;;;;4991010;28;20054;-82
2021/01/16 00:55:34;;;;;;;;;;;;;;;;;;;;;
2021/01/16 00:58:18;;;;;;;29.70;17.27;;;;;;;;;;4992428;28;20030;-82
2021/01/16 01:00:48;;;;;;;33.45;18.30;;;;;;;;;;4979024;28;20070;-82
2021/01/16 01:03:24;;;;;;;32.50;18.23;;;;;;;;;;4975983;28;20026;-83
2021/01/16 01:05:54;;;;;;;36.85;18.75;;;;;;;;;;4975335;28;20338;-82
2021/01/16 01:08:47;;;;;;;34.03;18.77;;;;;;;;;;4992023;28;20040;-82
2021/01/16 01:11:21;;;;;;;34.70;17.63;;;;;;;;;;4971297;28;20114;-82
2021/01/16 01:13:49;;;;;;;;;;;;;;;;;;4976159;28;20027;-82
2021/01/16 01:16:18;;;;;;;32.42;18.08;;;;;;;;;;4990999;28;19909;-81
2021/01/16 01:18:48;;;;;;;34.78;17.85;;;;;;;;;;4992281;28;20030;-82
2021/01/16 01:21:22;;;;;;;35.75;18.40;;;;;;;;;;4990794;28;20050;-82
2021/01/16 01:23:51;;;;;;;33.90;17.38;;;;;;;;;;4971066;28;20030;-82
2021/01/16 01:26:25;;;;;;;35.42;19.50;;;;;;;;;;4972935;28;20034;-82
2021/01/16 01:28:57;;;;;;;;;;;;;;;;;;4987781;28;20117;-82
2021/01/16 01:31:30;;;;;;;35.42;19.70;;;;;;;;;;4998320;28;20367;-82
2021/01/16 01:33:59;;;;;;;40.88;19.90;;;;;;;;;;4990559;28;20026;-82
2021/01/16 01:36:25;;;;;;;40.25;20.30;;;;;;;;;;4985871;28;20034;-80
2021/01/16 01:38:52;;;;;;;36.03;19.38;;;;;;;;;;4990586;28;20130;-82
2021/01/16 01:41:23;;;;;;;37.25;19.83;;;;;;;;;;4990624;28;20029;-82
2021/01/16 01:44:00;;;;;;;35.50;19.35;;;;;;;;;;4974016;28;20262;-85
2021/01/16 01:46:37;;;;;;;33.70;17.95;;;;;;;;;;4973844;28;20445;-83
2021/01/16 01:49:05;;;;;;;37.20;19.52;;;;;;;;;;4962943;28;20035;-83
2021/01/16 01:51:33;;;;;;;35.28;17.80;;;;;;;;;;4980554;28;20137;-82
2021/01/16 01:54:00;;;;;;;37.60;19.65;;;;;;;;;;4973972;28;20026;-82
2021/01/16 01:56:37;;;;;;;32.58;18.45;;;;;;;;;;4972756;28;20081;-82
2021/01/16 01:59:13;;;;;;;34.00;17.95;;;;;;;;;;4972790;28;20492;-82
2021/01/16 02:01:47;;;;;;;31.25;18.05;;;;;;;;;;4989361;28;20247;-84
2021/01/16 02:04:21;;;;;;;33.15;17.92;;;;;;;;;;4973378;28;20038;-82
2021/01/16 02:06:48;;;;;;;29.83;16.42;;;;;;;;;;4973102;28;20120;-82
2021/01/16 02:09:14;;;;;;;33.05;19.25;;;;;;;;;;4973193;28;20065;-82
2021/01/16 02:11:54;;;;;;;30.02;15.52;;;;;;;;;;4978679;28;20061;-81
2021/01/16 02:14:37;;;;;;;27.15;15.75;;;;;;;;;;4972682;28;20065;-81
2021/01/16 02:17:12;;;;;;;30.85;17.25;;;;;;;;;;4972234;28;20443;-83
2021/01/16 02:20:05;;;;;;;32.67;17.48;;;;;;;;;;4973041;28;20049;-83
2021/01/16 02:22:32;;;;;;;35.30;17.58;;;;;;;;;;4992324;28;20392;-82
2021/01/16 02:25:18;;;;;;;33.38;17.30;;;;;;;;;;4972722;28;20097;-82
2021/01/16 02:28:18;;;;;;;31.35;16.92;;;;;;;;;;4970353;28;20089;-82
2021/01/16 02:30:46;;;;;;;30.25;16.25;;;;;;;;;;4974896;28;20038;-85
2021/01/16 02:33:24;;;;;;;35.42;17.10;;;;;;;;;;4973795;28;20042;-82
2021/01/16 02:36:13;;;;;;;29.85;17.02;;;;;;;;;;4973376;28;20035;-84
2021/01/16 02:38:58;;;;;;;30.92;16.75;;;;;;;;;;4974623;28;20027;-82
2021/01/16 02:41:49;;;;;;;30.58;17.42;;;;;;;;;;4974069;28;20106;-82
2021/01/16 02:44:18;;;;;;;31.83;16.40;;;;;;;;;;4970764;28;20023;-81
2021/01/16 02:46:58;;;;;;;33.72;17.80;;;;;;;;;;4981389;28;20049;-83
2021/01/16 02:49:33;;;;;;;31.70;18.27;;;;;;;;;;4986767;28;20026;-81
2021/01/16 02:52:03;;;;;;;34.13;18.00;;;;;;;;;;4977388;28;20068;-82
2021/01/16 02:54:34;;;;;;;33.33;17.20;;;;;;;;;;4977367;28;20585;-82
2021/01/16 02:57:02;;;;;;;29.38;16.27;;;;;;;;;;4976776;28;20511;-83
2021/01/16 02:59:31;;;;;;;33.45;17.15;;;;;;;;;;4986940;28;20079;-82
2021/01/16 03:02:03;;;;;;;33.00;16.30;;;;;;;;;;4978250;28;20027;-82
2021/01/16 03:04:30;;;;;;;27.95;15.82;;;;;;;;;;4979476;28;20121;-82
2021/01/16 03:07:16;;;;;;;27.42;15.60;;;;;;;;;;4975647;28;20080;-82
2021/01/16 03:09:44;;;;;;;31.02;17.20;;;;;;;;;;4996443;28;20088;-82
2021/01/16 03:12:14;;;;;;;35.60;17.60;;;;;;;;;;4979851;28;20022;-81
2021/01/16 03:14:56;;;;;;;31.58;17.75;;;;;;;;;;4977131;28;20380;-82
2021/01/16 03:17:41;;;;;;;29.65;15.80;;;;;;;;;;4988194;28;20591;-82
2021/01/16 03:20:10;;;;;;;27.70;15.13;;;;;;;;;;4975418;28;20071;-81
2021/01/16 03:22:41;;;;;;;31.05;17.55;;;;;;;;;;4976268;28;20485;-82
2021/01/16 03:25:07;;;;;;;26.48;15.35;;;;;;;;;;4976101;28;20035;-82
2021/01/16 03:27:34;;;;;;;26.77;15.13;;;;;;;;;;4975186;28;20034;-81
2021/01/16 03:30:03;;;;;;;27.83;14.73;;;;;;;;;;4988088;28;20503;-82
2021/01/16 03:32:29;;;;;;;28.60;15.05;;;;;;;;;;4999519;28;20034;-82
2021/01/16 03:34:55;;;;;;;27.92;13.63;;;;;;;;;;4984769;28;20015;-84
2021/01/16 03:37:23;;;;;;;27.20;15.73;;;;;;;;;;5017223;28;20073;-84
2021/01/16 03:39:51;;;;;;;30.35;14.93;;;;;;;;;;5016264;28;20038;-83
2021/01/16 03:42:17;;;;;;;23.95;14.27;;;;;;;;;;5000484;28;20042;-82
2021/01/16 03:44:43;;;;;;;24.45;13.98;;;;;;;;;;4996530;28;20026;-82
2021/01/16 03:47:12;;;;;;;25.92;13.73;;;;;;;;;;4995856;28;20054;-82
2021/01/16 03:49:40;;;;;;;23.75;14.02;;;;;;;;;;4996798;28;20045;-82
2021/01/16 03:52:27;;;;;;;20.20;10.95;;;;;;;;;;4981651;28;20033;-82
2021/01/16 03:54:54;;;;;;;21.27;11.85;;;;;;;;;;4976176;28;22061;-82
2021/01/16 03:57:21;;;;;;;21.45;12.00;;;;;;;;;;4978344;28;20034;-82
2021/01/16 03:59:47;;;;;;;23.30;12.30;;;;;;;;;;4977969;28;20027;-82
2021/01/16 04:02:16;;;;;;;22.25;12.55;;;;;;;;;;4988719;28;20121;-84
2021/01/16 04:04:46;;;;;;;21.60;12.18;;;;;;;;;;5017127;28;20014;-85
2021/01/16 04:07:12;;;;;;;22.05;11.45;;;;;;;;;;5020060;28;20062;-84
2021/01/16 04:09:39;;;;;;;21.30;11.45;;;;;;;;;;4992081;28;20043;-84
2021/01/16 04:12:05;;;;;;;20.30;10.80;;;;;;;;;;5009322;28;20042;-84
2021/01/16 04:14:37;;;;;;;19.83;10.68;;;;;;;;;;4978462;28;20034;-82
2021/01/16 04:17:09;;;;;;;21.83;10.95;;;;;;;;;;4978030;28;20031;-84
2021/01/16 04:19:38;;;;;;;20.27;10.65;;;;;;;;;;5011575;28;20034;-84
2021/01/16 04:22:06;;;;;;;20.83;10.20;;;;;;;;;;4997244;28;20022;-84
2021/01/16 04:24:38;;;;;;;18.98;10.95;;;;;;;;;;4996042;28;20023;-84
2021/01/16 04:27:09;;;;;;;18.08;10.20;;;;;;;;;;4993923;28;20015;-84
2021/01/16 04:29:48;;;;;;;;;;;;;;;;;;;;;
2021/01/16 04:32:14;;;;;;;20.35;11.18;;;;;;;;;;5014082;28;20064;-84
2021/01/16 04:34:43;;;;;;;18.98;10.73;;;;;;;;;;5010303;28;20043;-84
2021/01/16 04:37:14;;;;;;;20.83;10.15;;;;;;;;;;4999313;28;20026;-85
2021/01/16 04:39:42;;;;;;;19.10;10.27;;;;;;;;;;5000671;28;20015;-84
2021/01/16 04:42:15;;;;;;;19.27;10.55;;;;;;;;;;4996786;28;20007;-84
2021/01/16 04:44:43;;;;;;;17.17;10.35;;;;;;;;;;4996810;28;20015;-84
2021/01/16 04:47:15;;;;;;;19.38;10.98;;;;;;;;;;5010225;28;20033;-84
2021/01/16 04:49:42;;;;;;;19.92;10.63;;;;;;;;;;5024980;28;20039;-84
2021/01/16 04:52:10;;;;;;;18.88;10.23;;;;;;;;;;5033100;28;20014;-83
2021/01/16 04:54:41;;;;;;;18.83;11.23;;;;;;;;;;5019018;28;20023;-84
2021/01/16 04:57:07;;;;;;;22.50;11.68;;;;;;;;;;4999395;28;20019;-84
2021/01/16 05:00:09;;;;;;;20.65;11.43;;;;;;;;;;4989728;28;20027;-84
2021/01/16 05:02:39;;;;;;;22.23;11.40;;;;;;;;;;4997134;28;20034;-84
2021/01/16 05:05:09;;;;;;;22.33;12.60;;;;;;;;;;4997074;28;20042;-84
2021/01/16 05:07:38;;;;;;;25.48;13.82;;;;;;;;;;4996540;28;20019;-85
2021/01/16 05:10:06;;;;;;;22.52;11.90;;;;;;;;;;5010848;28;20054;-85
2021/01/16 05:12:33;;;;;;;22.92;13.02;;;;;;;;;;4999927;28;20022;-84
2021/01/16 05:15:10;;;;;;;23.30;13.25;;;;;;;;;;5016470;28;20299;-84
2021/01/16 05:18:04;;;;;;;24.95;13.88;;;;;;;;;;4996889;28;20091;-84
2021/01/16 05:20:33;;;;;;;22.35;13.55;;;;;;;;;;4998135;28;20022;-84
2021/01/16 05:23:12;;;;;;;28.65;15.02;;;;;;;;;;5001190;28;20013;-84
2021/01/16 05:25:52;;;;;;;23.88;13.43;;;;;;;;;;4997552;28;20017;-84
2021/01/16 05:28:19;;;;;;;29.33;14.07;;;;;;;;;;5007506;28;20011;-84
2021/01/16 05:30:51;;;;;;;26.73;13.85;;;;;;;;;;5017027;28;20038;-84
2021/01/16 05:36:13;;;;;;;27.88;15.35;;;;;;;;;;5016546;28;20045;-84
2021/01/16 05:38:40;;;;;;;30.73;15.55;;;;;;;;;;5000035;28;20107;-81
2021/01/16 05:41:11;;;;;;;32.20;16.48;;;;;;;;;;4981238;28;20030;-82
2021/01/16 05:43:38;;;;;;;30.13;15.85;;;;;;;;;;4962221;28;20551;-84
2021/01/16 05:46:05;;;;;;;33.35;16.50;;;;;;;;;;4974149;28;20130;-81
2021/01/16 05:48:34;;;;;;;34.92;17.38;;;;;;;;;;4983618;28;20026;-81
2021/01/16 05:51:04;;;;;;;29.80;16.70;;;;;;;;;;4993726;28;20038;-81
2021/01/16 05:53:36;;;;;;;33.30;17.08;;;;;;;;;;4978040;28;20081;-81
2021/01/16 05:56:05;;;;;;;34.35;18.23;;;;;;;;;;4977601;28;20034;-81
2021/01/16 05:58:35;;;;;;;35.08;18.00;;;;;;;;;;4977606;28;20032;-81
2021/01/16 06:01:08;;;;;;;35.63;18.02;;;;;;;;;;4993597;28;20040;-81
2021/01/16 06:03:35;;;;;;;35.80;18.38;;;;;;;;;;4993677;28;20121;-82
2021/01/16 06:06:02;;;;;;;32.40;18.05;;;;;;;;;;4992956;28;20034;-81
2021/01/16 06:11:24;;;;;;;38.90;18.98;;;;;;;;;;4994364;28;20041;-81
2021/01/16 06:13:58;;;;;;;33.97;17.90;;;;;;;;;;4992687;28;20022;-81
2021/01/16 06:16:24;;;;;;;36.63;18.30;;;;;;;;;;4976375;28;20616;-81
2021/01/16 06:18:50;;;;;;;36.55;18.73;;;;;;;;;;4983870;28;20038;-81
2021/01/16 06:21:25;;;;;;;34.85;20.00;;;;;;;;;;4976367;28;20038;-81
2021/01/16 06:23:56;;;;;;;38.90;19.83;;;;;;;;;;4979944;28;20064;-82
2021/01/16 06:26:22;;;;;;;37.33;20.50;;;;;;;;;;4979151;28;20043;-82
2021/01/16 06:28:59;;;;;;;40.92;20.95;;;;;;;;;;4980395;28;20022;-81
2021/01/16 06:31:26;;;;;;;35.97;19.05;;;;;;;;;;4996204;28;20484;-81
2021/01/16 06:33:58;;;;;;;38.88;20.45;;;;;;;;;;4979910;28;20704;-81
2021/01/16 06:36:30;;;;;;;38.25;20.25;;;;;;;;;;4979214;28;20041;-81
2021/01/16 06:38:57;;;;;;;39.83;21.02;;;;;;;;;;4981337;28;20057;-81
2021/01/16 06:41:27;;;;;;;44.00;19.85;;;;;;;;;;4995602;28;20034;-81
2021/01/16 06:44:14;;;;;;;;;;;;;;;;;;;;;
2021/01/16 06:47:00;;;;;;;38.30;18.50;;;;;;;;;;4996666;28;20022;-81
2021/01/16 06:49:30;;;;;;;41.78;20.00;;;;;;;;;;4978956;28;20034;-81
2021/01/16 06:52:00;;;;;;;37.35;18.80;;;;;;;;;;4978885;28;20026;-81
2021/01/16 06:54:27;;;;;;;35.83;19.45;;;;;;;;;;4996856;28;20035;-81
2021/01/16 06:57:10;;;;;;;82.03;38.00;;;;;;;;;;4978206;28;20472;-81
2021/01/16 06:59:45;;;;;;;41.20;23.42;;;;;;;;;;4977953;28;20030;-81
2021/01/16 07:02:34;;;;;;;45.50;21.42;;;;;;;;;;4976289;28;20089;-81
2021/01/16 07:05:02;;;;;;;38.03;19.35;;;;;;;;;;4968517;28;20036;-81
2021/01/16 07:07:35;;;;;;;45.42;24.55;;;;;;;;;;4979531;28;20030;-82
2021/01/16 07:10:06;;;;;;;39.28;21.25;;;;;;;;;;4977715;28;20038;-81
2021/01/16 07:12:49;;;;;;;37.97;18.55;;;;;;;;;;4977383;28;20785;-80
2021/01/16 07:15:23;;;;;;;48.28;24.88;;;;;;;;;;4993538;28;20038;-81
2021/01/16 07:17:50;;;;;;;40.13;20.25;;;;;;;;;;4977693;28;20707;-81
2021/01/16 07:20:17;;;;;;;40.75;19.85;;;;;;;;;;4993940;28;20038;-81
2021/01/16 07:22:44;;;;;;;41.92;22.75;;;;;;;;;;4994328;28;20530;-82
2021/01/16 07:25:11;;;;;;;34.75;20.08;;;;;;;;;;4993672;28;20045;-82
2021/01/16 07:27:38;;;;;;;43.00;23.38;;;;;;;;;;4977496;28;20049;-81
2021/01/16 07:30:05;;;;;;;41.63;22.60;;;;;;;;;;4976782;28;20041;-82
2021/01/16 07:35:54;;;;;;;41.17;20.48;;;;;;;;;;4993405;28;20026;-81
2021/01/16 07:38:20;;;;;;;42.92;21.70;;;;;;;;;;4993919;28;20037;-81
2021/01/16 07:40:48;;;;;;;37.85;20.38;;;;;;;;;;4992769;28;20038;-81
2021/01/16 07:43:31;;;;;;;36.22;20.33;;;;;;;;;;4977779;28;20030;-81
2021/01/16 07:46:01;;;;;;;40.67;19.38;;;;;;;;;;4976731;28;20034;-82
2021/01/16 07:48:31;;;;;;;36.10;18.75;;;;;;;;;;4977353;28;20691;-82
2021/01/16 07:51:00;;;;;;;34.55;20.63;;;;;;;;;;4977660;28;20038;-81
2021/01/16 07:53:41;;;;;;;34.85;17.95;;;;;;;;;;4977697;28;20041;-81
2021/01/16 07:56:17;;;;;;;35.83;19.48;;;;;;;;;;4977367;28;20026;-81
2021/01/16 07:59:03;;;;;;;35.65;20.52;;;;;;;;;;4994247;28;20019;-82
2021/01/16 08:01:35;;;;;;;37.15;19.90;;;;;;;;;;4995130;28;20034;-81
2021/01/16 08:04:38;;;;;;;34.50;19.00;;;;;;;;;;4977555;28;20133;-82
2021/01/16 08:10:29;;;;;;;35.63;19.02;;;;;;;;;;4932429;29;20496;-83
2021/01/16 08:13:15;;;;;;;33.55;18.10;;;;;;;;;;4975032;28;20045;-83
2021/01/16 08:15:53;;;;;;;36.70;21.17;;;;;;;;;;4978833;28;20621;-84
2021/01/16 08:18:30;;;;;;;33.90;18.25;;;;;;;;;;4982022;28;20262;-83
2021/01/16 08:21:28;;;;;;;38.23;19.27;;;;;;;;;;4979625;28;20042;-82
2021/01/16 08:24:03;;;;;;;35.85;19.02;;;;;;;;;;4979313;28;20277;-82
2021/01/16 08:26:51;;;;;;;42.07;21.10;;;;;;;;;;4968201;28;20035;-82
2021/01/16 08:29:20;;;;;;;33.13;18.77;;;;;;;;;;4976379;28;20269;-83
2021/01/16 08:31:49;;;;;;;31.63;16.40;;;;;;;;;;4977001;28;20289;-83
2021/01/16 08:34:47;;;;;;;31.53;17.20;;;;;;;;;;4993473;28;20885;-82
2021/01/16 08:37:25;;;;;;;32.30;17.50;;;;;;;;;;4944421;28;20316;-82
2021/01/16 08:39:52;;;;;;;32.43;17.90;;;;;;;;;;4978029;28;20261;-82
2021/01/16 08:42:24;;;;;;;30.30;16.70;;;;;;;;;;4967723;28;20266;-83
2021/01/16 08:44:51;;;;;;;31.87;17.03;;;;;;;;;;4988948;28;20281;-82
2021/01/16 08:47:26;;;;;;;28.03;16.90;;;;;;;;;;4975883;28;20383;-81
2021/01/16 08:50:14;;;;;;;33.50;19.27;;;;;;;;;;4976307;28;20277;-83
2021/01/16 08:52:43;;;;;;;34.37;19.20;;;;;;;;;;4973232;28;20905;-82
2021/01/16 08:55:13;;;;;;;31.27;19.00;;;;;;;;;;4981196;28;20755;-82
2021/01/16 08:57:51;;;;;;;;;;;;;;;;;;;;;
2021/01/16 09:00:32;;;;;;;34.60;19.67;;;;;;;;;;4982839;28;20705;-82
2021/01/16 09:03:09;;;;;;;30.23;16.07;;;;;;;;;;4990591;28;20324;-81
2021/01/16 09:05:36;;;;;;;29.20;17.07;;;;;;;;;;4990980;28;20258;-81
2021/01/16 09:08:03;;;;;;;29.33;18.00;;;;;;;;;;4987177;28;20320;-80
2021/01/16 09:10:33;;;;;;;32.63;16.13;;;;;;;;;;4989844;28;20285;-80
2021/01/16 09:12:59;;;;;;;27.70;16.90;;;;;;;;;;4975445;28;20973;-80
2021/01/16 09:15:27;;;;;;;31.03;16.27;;;;;;;;;;4980898;28;20327;-80
2021/01/16 09:18:02;;;;;;;33.97;18.23;;;;;;;;;;4972899;28;20273;-79
2021/01/16 09:20:29;;;;;;;30.03;15.90;;;;;;;;;;4973450;28;20289;-79
2021/01/16 09:22:55;;;;;;;30.13;18.07;;;;;;;;;;4988339;28;20307;-80
2021/01/16 09:25:22;;;;;;;28.60;16.10;;;;;;;;;;4986607;28;20779;-79
2021/01/16 09:27:48;;;;;;;26.07;15.97;;;;;;;;;;4982406;28;20768;-79
2021/01/16 09:30:20;;;;;;;25.07;15.93;;;;;;;;;;4972245;28;20298;-80
2021/01/16 09:32:47;;;;;;;31.83;15.57;;;;;;;;;;4997016;28;20273;-79
2021/01/16 09:35:13;;;;;;;26.83;16.20;;;;;;;;;;4990916;28;20278;-80
2021/01/16 09:37:39;;;;;;;23.37;14.87;;;;;;;;;;4972018;28;20288;-79
2021/01/16 09:40:10;;;;;;;26.90;15.37;;;;;;;;;;4989559;28;20272;-80
2021/01/16 09:42:43;;;;;;;25.27;15.63;;;;;;;;;;4975851;28;20284;-78
2021/01/16 09:45:09;;;;;;;;;;;;;;;;;;4989405;28;20273;-80
2021/01/16 09:47:35;;;;;;;28.53;15.47;;;;;;;;;;4988776;28;19921;-80
2021/01/16 09:50:02;;;;;;;25.90;14.83;;;;;;;;;;4978366;28;20642;-80
2021/01/16 09:52:31;;;;;;;26.53;16.27;;;;;;;;;;4983102;28;20372;-80
2021/01/16 09:54:58;;;;;;;30.33;18.10;;;;;;;;;;4990045;28;20280;-81
2021/01/16 09:57:37;;;;;;;31.10;19.53;;;;;;;;;;4990925;28;20332;-81
2021/01/16 10:00:17;;;;;;;24.10;13.80;;;;;;;;;;4977501;28;20297;-80
2021/01/16 10:02:44;;;;;;;29.60;16.90;;;;;;;;;;4973520;28;20365;-79
2021/01/16 10:05:13;;;;;;;24.10;13.70;;;;;;;;;;4990621;28;20282;-80
2021/01/16 10:07:40;;;;;;;25.43;14.97;;;;;;;;;;4971756;28;20365;-79
2021/01/16 10:10:12;;;;;;;27.90;16.17;;;;;;;;;;4989067;28;20262;-80
2021/01/16 10:12:40;;;;;;;32.60;18.40;;;;;;;;;;4987913;28;20278;-79
2021/01/16 10:15:08;;;;;;;31.67;18.40;;;;;;;;;;4972146;28;20281;-80
2021/01/16 10:17:34;;;;;;;30.27;18.43;;;;;;;;;;4972808;28;20275;-79
2021/01/16 10:20:07;;;;;;;33.50;19.67;;;;;;;;;;4973248;28;20273;-80
2021/01/16 10:22:34;;;;;;;26.17;13.65;;;;;;;;;;4972876;28;20612;-80
2021/01/16 10:25:01;;;;;;;30.77;17.30;;;;;;;;;;4974607;28;20121;-81
2021/01/16 10:27:44;;;;;;;33.13;19.57;;;;;;;;;;4973994;28;20853;-80
2021/01/16 10:30:15;;;;;;;24.55;16.25;;;;;;;;;;4974784;28;20848;-80
2021/01/16 10:32:47;;;;;;;29.00;16.70;;;;;;;;;;4991146;28;20033;-80
2021/01/16 10:35:34;;;;;;;31.80;18.27;;;;;;;;;;5005736;28;20274;-80
2021/01/16 10:38:09;;;;;;;32.57;19.47;;;;;;;;;;5002203;28;20281;-79
2021/01/16 10:41:40;;;;;;;25.13;17.40;;;;;;;;;;4987437;28;20285;-79
2021/01/16 10:43:56;;;;;;;25.03;16.13;;;;;;;;;;4992474;28;20282;-79
2021/01/16 10:46:29;;;;;;;27.03;17.73;;;;;;;;;;4984655;28;20277;-79
2021/01/16 10:49:12;;;;;;;23.92;14.23;;;;;;;;;;4983205;28;20373;-79
2021/01/16 10:52:06;;;;;;;27.20;15.10;;;;;;;;;;4996332;28;20093;-78
2021/01/16 10:54:39;;;;;;;;;;;;;;;;;;4984975;28;20254;-79
2021/01/16 10:57:12;;;;;;;29.63;16.50;;;;;;;;;;4968679;28;19953;-78
2021/01/16 10:59:55;;;;;;;29.20;16.67;;;;;;;;;;4983892;28;20356;-78
2021/01/16 11:02:47;;;;;;;29.90;16.55;;;;;;;;;;4984447;28;20328;-79
2021/01/16 11:05:19;;;;;;;31.47;17.93;;;;;;;;;;4983419;28;20039;-80
2021/01/16 11:07:48;;;;;;;24.53;14.80;;;;;;;;;;4994354;28;20676;-80
2021/01/16 11:10:19;;;;;;;28.80;16.93;;;;;;;;;;4989397;28;20278;-79
2021/01/16 11:12:51;;;;;;;25.00;14.70;;;;;;;;;;5001665;28;20364;-80
2021/01/16 11:15:26;;;;;;;28.20;15.50;;;;;;;;;;5000381;28;20405;-79
2021/01/16 11:18:01;;;;;;;30.07;16.87;;;;;;;;;;5008367;28;20301;-81
2021/01/16 11:20:33;;;;;;;30.93;19.97;;;;;;;;;;4990577;28;20282;-81
2021/01/16 11:23:06;;;;;;;30.30;16.67;;;;;;;;;;4989462;28;20279;-81
2021/01/16 11:25:45;;;;;;;31.17;17.97;;;;;;;;;;4998049;28;20273;-80
2021/01/16 11:28:19;;;;;;;26.10;16.60;;;;;;;;;;4989174;28;20402;-81
2021/01/16 11:30:49;;;;;;;;;;;;;;;;;;5004468;28;20294;-80
2021/01/16 11:33:20;;;;;;;21.10;12.33;;;;;;;;;;5004360;28;19913;-80
2021/01/16 11:35:46;;;;;;;25.87;15.77;;;;;;;;;;4988766;28;20344;-80
2021/01/16 11:38:34;;;;;;;29.63;17.30;;;;;;;;;;4987109;28;20272;-80
2021/01/16 11:41:07;;;;;;;22.93;13.10;;;;;;;;;;4987876;28;20349;-80
2021/01/16 11:43:33;;;;;;;;;;;;;;;;;;5004739;28;20272;-80
2021/01/16 11:46:03;;;;;;;28.87;17.93;;;;;;;;;;5000504;28;19913;-80
2021/01/16 11:48:31;;;;;;;24.67;14.23;;;;;;;;;;4985134;28;20353;-81
2021/01/16 11:50:58;;;;;;;26.07;14.70;;;;;;;;;;4982308;28;20321;-80
2021/01/16 11:53:30;;;;;;;23.67;14.37;;;;;;;;;;5000319;28;20759;-80
2021/01/16 11:56:07;;;;;;;28.03;15.93;;;;;;;;;;5001890;28;20261;-81
2021/01/16 11:58:38;;;;;;;25.43;14.83;;;;;;;;;;5003478;28;20266;-80
2021/01/16 12:01:05;;;;;;;27.17;15.20;;;;;;;;;;4984280;28;20272;-80
2021/01/16 12:03:34;;;;;;;26.73;16.50;;;;;;;;;;4998747;28;20344;-82
2021/01/16 12:06:09;;;;;;;29.87;17.40;;;;;;;;;;4987537;28;20284;-79
2021/01/16 12:08:38;;;;;;;24.67;15.27;;;;;;;;;;4985729;28;20261;-80
2021/01/16 12:11:07;;;;;;;27.77;15.90;;;;;;;;;;4986759;28;20281;-80
2021/01/16 12:13:34;;;;;;;29.70;17.33;;;;;;;;;;4984473;28;20296;-80
2021/01/16 12:16:00;;;;;;;29.53;16.80;;;;;;;;;;4970778;28;20352;-79
2021/01/16 12:18:26;;;;;;;35.10;20.80;;;;;;;;;;4991741;28;21147;-80
2021/01/16 12:20:53;;;;;;;29.57;17.93;;;;;;;;;;4989759;28;20281;-79
2021/01/16 12:23:21;;;;;;;30.80;16.97;;;;;;;;;;4991560;28;20296;-79
2021/01/16 12:25:58;;;;;;;32.13;18.83;;;;;;;;;;4991518;28;20467;-79
2021/01/16 12:28:33;;;;;;;29.50;18.10;;;;;;;;;;4993141;28;20258;-79
2021/01/16 12:31:02;;;;;;;32.03;19.20;;;;;;;;;;4991572;28;20290;-82
2021/01/16 12:33:33;;;;;;;30.37;18.13;;;;;;;;;;4980299;28;20281;-80
2021/01/16 12:36:07;;;;;;;28.63;17.50;;;;;;;;;;4982931;28;20974;-79
2021/01/16 12:38:42;;;;;;;31.33;18.60;;;;;;;;;;4992198;28;20277;-79
2021/01/16 12:41:09;;;;;;;30.47;16.77;;;;;;;;;;5011505;28;20372;-79
2021/01/16 12:43:35;;;;;;;27.23;14.77;;;;;;;;;;5006323;28;20278;-79
2021/01/16 12:46:07;;;;;;;26.83;15.27;;;;;;;;;;5009209;28;20288;-80
2021/01/16 12:48:34;;;;;;;27.80;15.10;;;;;;;;;;4998357;28;20285;-79
2021/01/16 12:51:04;;;;;;;28.63;14.53;;;;;;;;;;4972249;28;20281;-79
2021/01/16 12:53:31;;;;;;;19.20;11.23;;;;;;;;;;4991554;28;20320;-80
2021/01/16 12:55:57;;;;;;;22.63;11.20;;;;;;;;;;4974363;28;20280;-81
2021/01/16 12:58:23;;;;;;;24.90;12.83;;;;;;;;;;4988555;28;20285;-80
2021/01/16 13:00:49;;;;;;;20.10;12.23;;;;;;;;;;4986735;28;20277;-80
2021/01/16 13:03:15;;;;;;;18.57;11.73;;;;;;;;;;4982589;28;20277;-80
2021/01/16 13:05:42;;;;;;;32.40;18.57;;;;;;;;;;4989639;28;20269;-81
2021/01/16 13:08:13;;;;;;;18.13;10.83;;;;;;;;;;4992214;28;20717;-80
2021/01/16 13:10:54;;;;;;;18.23;10.77;;;;;;;;;;4987355;28;20297;-80
2021/01/16 13:13:20;;;;;;;20.20;10.93;;;;;;;;;;4972653;28;20254;-79
2021/01/16 13:15:47;;;;;;;18.57;11.53;;;;;;;;;;4990288;28;20277;-81
2021/01/16 13:18:15;;;;;;;19.47;11.00;;;;;;;;;;4975574;28;20273;-79
2021/01/16 13:20:53;;;;;;;16.00;9.80;;;;;;;;;;4974582;28;20297;-80
2021/01/16 13:23:34;;;;;;;18.10;10.43;;;;;;;;;;4974780;28;20270;-80
2021/01/16 13:26:04;;;;;;;17.00;10.13;;;;;;;;;;4973337;28;20281;-80
2021/01/16 13:28:30;;;;;;;20.90;10.67;;;;;;;;;;4992047;28;20396;-80
2021/01/16 13:31:01;;;;;;;19.77;10.40;;;;;;;;;;4992022;28;20289;-80
2021/01/16 13:33:28;;;;;;;17.50;10.07;;;;;;;;;;4990606;28;20385;-80
2021/01/16 13:35:55;;;;;;;18.20;10.57;;;;;;;;;;4973779;28;20277;-80
2021/01/16 13:38:22;;;;;;;21.47;11.13;;;;;;;;;;4987029;28;20274;-80
2021/01/16 13:40:58;;;;;;;21.63;12.63;;;;;;;;;;4974796;28;20275;-79
2021/01/16 13:43:26;;;;;;;15.63;8.50;;;;;;;;;;4980387;28;20273;-79
2021/01/16 13:45:53;;;;;;;15.93;9.17;;;;;;;;;;4996163;28;20682;-80
2021/01/16 13:48:19;;;;;;;18.40;9.63;;;;;;;;;;4990033;28;20304;-79
2021/01/16 13:50:45;;;;;;;19.43;10.90;;;;;;;;;;4990203;28;20304;-80
2021/01/16 13:53:12;;;;;;;21.53;10.67;;;;;;;;;;4992015;28;20301;-80
2021/01/16 13:55:38;;;;;;;17.80;10.33;;;;;;;;;;4974043;28;20272;-80
2021/01/16 13:58:04;;;;;;;18.97;11.10;;;;;;;;;;4974152;28;20265;-80
2021/01/16 14:00:49;;;;;;;17.90;10.27;;;;;;;;;;4975840;28;20281;-80
2021/01/16 14:03:24;;;;;;;15.57;9.63;;;;;;;;;;4991248;28;20346;-78
2021/01/16 14:06:01;;;;;;;16.77;9.00;;;;;;;;;;4973544;28;20273;-79
2021/01/16 14:08:28;;;;;;;16.03;9.83;;;;;;;;;;4981751;28;20794;-79
2021/01/16 14:11:00;;;;;;;20.07;10.10;;;;;;;;;;4988926;28;20321;-80
2021/01/16 14:13:34;;;;;;;19.48;10.05;;;;;;;;;;4991281;28;20281;-80
2021/01/16 14:16:05;;;;;;;17.37;10.00;;;;;;;;;;4959645;28;20133;-79
2021/01/16 14:18:32;;;;;;;16.73;10.07;;;;;;;;;;4975653;28;20639;-80
2021/01/16 14:20:59;;;;;;;27.83;14.27;;;;;;;;;;4991183;28;20281;-78
2021/01/16 14:23:32;;;;;;;17.40;10.17;;;;;;;;;;4972248;28;20344;-80
2021/01/16 14:26:17;;;;;;;17.33;8.63;;;;;;;;;;4953937;28;20924;-81
2021/01/16 14:28:45;;;;;;;18.23;10.23;;;;;;;;;;4973163;28;20034;-80
2021/01/16 14:31:24;;;;;;;19.40;10.03;;;;;;;;;;4989478;28;20289;-80
2021/01/16 14:33:57;;;;;;;19.30;10.83;;;;;;;;;;4992271;28;20266;-80
2021/01/16 14:36:24;;;;;;;16.95;8.13;;;;;;;;;;4994227;28;20265;-80
2021/01/16 14:39:06;;;;;;;27.77;15.37;;;;;;;;;;4981712;28;20731;-79
2021/01/16 14:41:46;;;;;;;17.30;9.87;;;;;;;;;;4981845;28;20791;-80
2021/01/16 14:44:16;;;;;;;18.57;9.87;;;;;;;;;;4973164;28;20274;-80
2021/01/16 14:46:55;;;;;;;16.10;9.47;;;;;;;;;;4985735;28;20266;-80
2021/01/16 14:49:28;;;;;;;20.30;9.57;;;;;;;;;;4977617;28;20318;-81
2021/01/16 14:51:55;;;;;;;18.92;9.80;;;;;;;;;;4978113;28;20293;-79
2021/01/16 14:54:22;;;;;;;16.37;10.10;;;;;;;;;;4974534;28;20034;-80
2021/01/16 14:56:48;;;;;;;16.07;9.30;;;;;;;;;;4973628;28;20340;-81
2021/01/16 14:59:14;;;;;;;18.83;10.50;;;;;;;;;;4981455;28;20270;-80
2021/01/16 15:01:50;;;;;;;19.53;10.73;;;;;;;;;;4994183;28;20269;-80
2021/01/16 15:04:17;;;;;;;16.17;9.93;;;;;;;;;;4978716;28;20280;-81